Map

Track Data

SID SEASON NUMBER BASIN SUBBASIN NAME ISO_TIME NATURE LAT LON WMO_WIND WMO_PRES WMO_AGENCY TRACK_TYPE DIST2LAND LANDFALL IFLAG USA_AGENCY USA_ATCF_ID USA_LAT USA_LON USA_RECORD USA_STATUS USA_WIND USA_PRES USA_SSHS USA_R34_NE USA_R34_SE USA_R34_SW USA_R34_NW USA_R50_NE USA_R50_SE USA_R50_SW USA_R50_NW USA_R64_NE USA_R64_SE USA_R64_SW USA_R64_NW USA_POCI USA_ROCI USA_RMW USA_EYE TOKYO_LAT TOKYO_LON TOKYO_GRADE TOKYO_WIND TOKYO_PRES TOKYO_R50_DIR TOKYO_R50_LONG TOKYO_R50_SHORT TOKYO_R30_DIR TOKYO_R30_LONG TOKYO_R30_SHORT TOKYO_LAND CMA_LAT CMA_LON CMA_CAT CMA_WIND CMA_PRES HKO_LAT HKO_LON HKO_CAT HKO_WIND HKO_PRES NEWDELHI_LAT NEWDELHI_LON NEWDELHI_GRADE NEWDELHI_WIND NEWDELHI_PRES NEWDELHI_CI NEWDELHI_DP NEWDELHI_POCI REUNION_LAT REUNION_LON REUNION_TYPE REUNION_WIND REUNION_PRES REUNION_TNUM REUNION_CI REUNION_RMW REUNION_R34_NE REUNION_R34_SE REUNION_R34_SW REUNION_R34_NW REUNION_R50_NE REUNION_R50_SE REUNION_R50_SW REUNION_R50_NW REUNION_R64_NE REUNION_R64_SE REUNION_R64_SW REUNION_R64_NW BOM_LAT BOM_LON BOM_TYPE BOM_WIND BOM_PRES BOM_TNUM BOM_CI BOM_RMW BOM_R34_NE BOM_R34_SE BOM_R34_SW BOM_R34_NW BOM_R50_NE BOM_R50_SE BOM_R50_SW BOM_R50_NW BOM_R64_NE BOM_R64_SE BOM_R64_SW BOM_R64_NW BOM_ROCI BOM_POCI BOM_EYE BOM_POS_METHOD BOM_PRES_METHOD NADI_LAT NADI_LON NADI_CAT NADI_WIND NADI_PRES WELLINGTON_LAT WELLINGTON_LON WELLINGTON_WIND WELLINGTON_PRES DS824_LAT DS824_LON DS824_STAGE DS824_WIND DS824_PRES TD9636_LAT TD9636_LON TD9636_STAGE TD9636_WIND TD9636_PRES TD9635_LAT TD9635_LON TD9635_WIND TD9635_PRES TD9635_ROCI NEUMANN_LAT NEUMANN_LON NEUMANN_CLASS NEUMANN_WIND NEUMANN_PRES MLC_LAT MLC_LON MLC_CLASS MLC_WIND MLC_PRES USA_GUST BOM_GUST BOM_GUST_PER REUNION_GUST REUNION_GUST_PER USA_SEAHGT USA_SEARAD_NE USA_SEARAD_SE USA_SEARAD_SW USA_SEARAD_NW STORM_SPEED STORM_DIR
1882039S14069 1882 4 SI MM NOT_NAMED 1882-02-07 18:00:00 NR -14.1000 69.0000 main 1375 1366 __________O___ -1 -14.1000 69.0000 7 3 248
1882039S14069 1882 4 SI MM NOT_NAMED 1882-02-07 21:00:00 NR -14.1527 68.8668 main 1360 1341 __________P___ -1 -14.1527 68.8668 7 3 247
1882039S14069 1882 4 SI MM NOT_NAMED 1882-02-08 00:00:00 NR -14.2244 68.6970 main 1341 1317 __________P___ -1 -14.2244 68.6970 7 4 246
1882039S14069 1882 4 SI MM NOT_NAMED 1882-02-08 03:00:00 NR -14.3339 68.4537 main 1317 1269 __________P___ -1 -14.3339 68.4537 7 6 245
1882039S14069 1882 4 SI MM NOT_NAMED 1882-02-08 06:00:00 NR -14.5000 68.1000 main 1269 1211 __________O___ -1 -14.5000 68.1000 7 9 244
1882039S14069 1882 4 SI MM NOT_NAMED 1882-02-08 09:00:00 NR -14.7349 67.6121 main 1211 1148 __________P___ -1 -14.7349 67.6121 7 12 243
1882039S14069 1882 4 SI MM NOT_NAMED 1882-02-08 12:00:00 NR -15.0257 67.0202 main 1138 1066 __________P___ -1 -15.0257 67.0202 7 14 243
1882039S14069 1882 4 SI MM NOT_NAMED 1882-02-08 15:00:00 NR -15.3535 66.3681 main 1060 979 __________P___ -1 -15.3535 66.3681 7 14 242
1882039S14069 1882 4 SI MM NOT_NAMED 1882-02-08 18:00:00 NR -15.7000 65.7000 main 979 906 __________O___ -1 -15.7000 65.7000 7 14 242
1882039S14069 1882 4 SI MM NOT_NAMED 1882-02-08 21:00:00 NR -16.0314 65.0697 main 906 828 __________P___ -1 -16.0314 65.0697 7 14 241
1882039S14069 1882 4 SI MM NOT_NAMED 1882-02-09 00:00:00 NR -16.3773 64.4346 main 819 747 __________P___ -1 -16.3773 64.4346 7 14 240
1882039S14069 1882 4 SI MM NOT_NAMED 1882-02-09 03:00:00 NR -16.7345 63.8071 main 747 669 __________P___ -1 -16.7345 63.8071 7 14 239
1882039S14069 1882 4 SI MM NOT_NAMED 1882-02-09 06:00:00 NR -17.1000 63.2000 main 669 606 __________O___ -1 -17.1000 63.2000 7 13 237
1882039S14069 1882 4 SI MM NOT_NAMED 1882-02-09 09:00:00 NR -17.4589 62.6315 main 592 529 __________P___ -1 -17.4589 62.6315 7 13 236
1882039S14069 1882 4 SI MM NOT_NAMED 1882-02-09 12:00:00 NR -17.8264 62.0836 main 529 461 __________P___ -1 -17.8264 62.0836 7 13 234
1882039S14069 1882 4 SI MM NOT_NAMED 1882-02-09 15:00:00 NR -18.2058 61.5439 main 452 384 __________P___ -1 -18.2058 61.5439 7 13 233
1882039S14069 1882 4 SI MM NOT_NAMED 1882-02-09 18:00:00 NR -18.6000 61.0000 main 384 317 __________O___ -1 -18.6000 61.0000 7 13 233
1882039S14069 1882 4 SI MM NOT_NAMED 1882-02-09 21:00:00 NR -19.0103 60.4277 main 308 241 __________P___ -1 -19.0103 60.4277 7 14 233
1882039S14069 1882 4 SI MM NOT_NAMED 1882-02-10 00:00:00 NR -19.4346 59.8493 main 232 166 __________P___ -1 -19.4346 59.8493 7 14 232
1882039S14069 1882 4 SI MM NOT_NAMED 1882-02-10 03:00:00 NR -19.8665 59.2713 main 162 93 __________P___ -1 -19.8665 59.2713 7 14 231
1882039S14069 1882 4 SI MM NOT_NAMED 1882-02-10 06:00:00 NR -20.3000 58.7000 main 93 56 __________O___ -1 -20.3000 58.7000 7 14 231
1882039S14069 1882 4 SI MM NOT_NAMED 1882-02-10 09:00:00 NR -20.7205 58.1298 main 47 45 __________P___ -1 -20.7205 58.1298 7 14 231
1882039S14069 1882 4 SI MM NOT_NAMED 1882-02-10 12:00:00 NR -21.1421 57.5689 main 67 67 __________P___ -1 -21.1421 57.5689 7 13 231
1882039S14069 1882 4 SI MM NOT_NAMED 1882-02-10 15:00:00 NR -21.5675 57.0235 main 126 106 __________P___ -1 -21.5675 57.0235 7 13 229
1882039S14069 1882 4 SI MM NOT_NAMED 1882-02-10 18:00:00 NR -22.0000 56.5000 main 106 99 __________O___ -1 -22.0000 56.5000 7 13 228
1882039S14069 1882 4 SI MM NOT_NAMED 1882-02-10 21:00:00 NR -22.4178 55.9978 main 119 119 __________P___ -1 -22.4178 55.9978 7 12 227
1882039S14069 1882 4 SI MM NOT_NAMED 1882-02-11 00:00:00 NR -22.8467 55.5177 main 156 156 __________P___ -1 -22.8467 55.5177 7 12 225
1882039S14069 1882 4 SI MM NOT_NAMED 1882-02-11 03:00:00 NR -23.3023 55.0538 main 218 218 __________P___ -1 -23.3023 55.0538 7 13 222
1882039S14069 1882 4 SI MM NOT_NAMED 1882-02-11 06:00:00 NR -23.8000 54.6000 main 287 287 __________O___ -1 -23.8000 54.6000 7 13 219
1882039S14069 1882 4 SI MM NOT_NAMED 1882-02-11 09:00:00 NR -24.3404 54.1300 main 357 357 __________P___ -1 -24.3404 54.1300 7 14 217
1882039S14069 1882 4 SI MM NOT_NAMED 1882-02-11 12:00:00 NR -24.9248 53.6690 main 434 434 __________P___ -1 -24.9248 53.6690 7 15 214
1882039S14069 1882 4 SI MM NOT_NAMED 1882-02-11 15:00:00 NR -25.5468 53.2235 main 515 515 __________P___ -1 -25.5468 53.2235 7 15 212
1882039S14069 1882 4 SI MM NOT_NAMED 1882-02-11 18:00:00 NR -26.2000 52.8000 main 583 566 __________O___ -1 -26.2000 52.8000 7 15 209
1882039S14069 1882 4 SI MM NOT_NAMED 1882-02-11 21:00:00 NR -26.8783 52.4028 main 570 560 __________P___ -1 -26.8783 52.4028 7 15 207
1882039S14069 1882 4 SI MM NOT_NAMED 1882-02-12 00:00:00 NR -27.5754 52.0259 main 567 564 __________P___ -1 -27.5754 52.0259 7 16 205
1882039S14069 1882 4 SI MM NOT_NAMED 1882-02-12 03:00:00 NR -28.2849 51.6612 main 586 579 __________P___ -1 -28.2849 51.6612 7 16 204
1882039S14069 1882 4 SI MM NOT_NAMED 1882-02-12 06:00:00 NR -29.0000 51.3000 main 608 __________O___ -1 -29.0000 51.3000 7 16 204

About IBTrACS Database

This database is a web-friendly format of International Best Track Archive for Climate Stewardship (IBTrACS), a global best track data archive curated by NOAA dating back to 1842.

Updated: 2021-12-08